Time;durP1;ratioP1;P1;durP2;ratioP2;P2;SDS_P1;SDS_P2;PMS_P1;PMS_P2;Temp;Humidity;BMP_temperature;BMP_pressure;BME280_temperature;BME280_humidity;BME280_pressure;Samples;Min_cycle;Max_cycle;Signal;HPM_P1;HPM_P2
2023/09/27 00:01:34;;;;;;;7.37;5.70;;;;;;;-148.15;100.00;61821.78;4941278;29;20027;-87
2023/09/27 00:03:59;;;;;;;8.57;5.50;;;;;;;-148.15;100.00;61821.78;4935720;29;20036;-88
2023/09/27 00:06:25;;;;;;;7.93;5.40;;;;;;;-148.15;100.00;61821.78;4929145;29;20087;-88
2023/09/27 00:08:50;;;;;;;7.87;5.97;;;;;;;-148.15;100.00;61821.78;4910113;29;20491;-87
2023/09/27 00:11:15;;;;;;;9.48;5.28;;;;;;;-148.15;100.00;61821.78;4933765;29;20110;-87
2023/09/27 00:13:41;;;;;;;7.63;5.50;;;;;;;-148.15;100.00;61821.78;4923634;29;20027;-88
2023/09/27 00:16:06;;;;;;;9.07;5.70;;;;;;;-148.15;100.00;61821.78;4935638;29;20580;-88
2023/09/27 00:18:32;;;;;;;7.53;5.60;;;;;;;-148.15;100.00;61821.78;4935928;29;20026;-88
2023/09/27 00:20:58;;;;;;;7.67;5.23;;;;;;;-148.15;100.00;61821.78;4935559;29;20159;-87
2023/09/27 00:23:23;;;;;;;8.27;5.53;;;;;;;-148.15;100.00;61821.78;4935693;29;20288;-88
2023/09/27 00:25:49;;;;;;;6.60;5.50;;;;;;;-148.15;100.00;61821.78;4934326;29;20098;-87
2023/09/27 00:28:14;;;;;;;7.43;5.37;;;;;;;-148.15;100.00;61821.78;4933324;29;20032;-88
2023/09/27 00:30:39;;;;;;;6.87;5.33;;;;;;;-148.15;100.00;61821.78;4942155;29;20123;-87
2023/09/27 00:33:04;;;;;;;6.93;5.23;;;;;;;-148.15;100.00;61821.78;4916520;29;20024;-87
2023/09/27 00:35:30;;;;;;;7.10;5.63;;;;;;;-148.15;100.00;61821.78;4936811;29;20115;-87
2023/09/27 00:37:56;;;;;;;8.70;5.77;;;;;;;-148.15;100.00;61821.78;4935419;29;20027;-88
2023/09/27 00:40:24;;;;;;;9.75;4.88;;;;;;;-148.15;100.00;61821.78;4945078;29;20074;-87
2023/09/27 00:42:50;;;;;;;7.13;5.03;;;;;;;-148.15;100.00;61821.78;4939413;29;20039;-87
2023/09/27 00:45:19;;;;;;;6.93;5.17;;;;;;;-148.15;100.00;61821.78;4934775;29;20039;-87
2023/09/27 00:47:47;;;;;;;7.82;5.25;;;;;;;-148.15;100.00;61821.78;4931246;29;20028;-88
2023/09/27 00:50:13;;;;;;;7.18;5.40;;;;;;;-148.15;100.00;61821.78;4902000;29;20024;-87
2023/09/27 00:52:40;;;;;;;7.35;5.50;;;;;;;-148.15;100.00;61821.78;4925568;29;20035;-87
2023/09/27 00:55:10;;;;;;;8.83;5.43;;;;;;;-148.15;100.00;61821.78;4904879;29;20038;-87
2023/09/27 00:57:36;;;;;;;7.63;5.40;;;;;;;-148.15;100.00;61821.78;4921744;29;20295;-86
2023/09/27 01:00:02;;;;;;;7.97;5.60;;;;;;;-148.15;100.00;61821.78;4927145;29;20502;-87
2023/09/27 01:02:28;;;;;;;7.95;5.40;;;;;;;-148.15;100.00;61821.78;4928545;29;20477;-87
2023/09/27 01:04:53;;;;;;;7.53;5.60;;;;;;;-148.15;100.00;61821.78;4923359;29;20114;-87
2023/09/27 01:07:18;;;;;;;7.10;5.70;;;;;;;-148.15;100.00;61821.78;4933622;29;20495;-87
2023/09/27 01:09:44;;;;;;;6.77;6.07;;;;;;;-148.15;100.00;61821.78;4929723;29;20122;-87
2023/09/27 01:12:09;;;;;;;5.73;5.00;;;;;;;-148.15;100.00;61821.78;4931957;29;20063;-87
2023/09/27 01:14:34;;;;;;;6.18;5.55;;;;;;;-148.15;100.00;61821.78;4927741;29;20383;-87
2023/09/27 01:17:18;;;;;;;9.20;5.53;;;;;;;-148.15;100.00;61821.78;4907513;29;20110;-87
2023/09/27 01:19:43;;;;;;;8.50;5.57;;;;;;;-148.15;100.00;61821.78;4937273;29;20046;-87
2023/09/27 01:22:09;;;;;;;10.20;6.07;;;;;;;-148.15;100.00;61821.78;4933883;29;20039;-87
2023/09/27 01:24:38;;;;;;;6.80;5.93;;;;;;;-148.15;100.00;61821.78;4934155;29;20231;-87
2023/09/27 01:27:09;;;;;;;7.88;6.00;;;;;;;-148.15;100.00;61821.78;4950047;29;20483;-87
2023/09/27 01:29:34;;;;;;;8.25;6.30;;;;;;;-148.15;100.00;61821.78;4924584;29;20122;-87
2023/09/27 01:32:00;;;;;;;7.57;6.00;;;;;;;-148.15;100.00;61821.78;4951040;29;20146;-87
2023/09/27 01:34:25;;;;;;;7.75;5.82;;;;;;;-148.15;100.00;61821.78;4944293;29;20031;-87
2023/09/27 01:36:52;;;;;;;7.90;5.50;;;;;;;-148.15;100.00;61821.78;4940361;29;20098;-87
2023/09/27 01:39:18;;;;;;;8.20;6.18;;;;;;;-148.15;100.00;61821.78;4935447;29;20472;-87
2023/09/27 01:41:43;;;;;;;10.50;5.97;;;;;;;-148.15;100.00;61821.78;4938007;29;20171;-87
2023/09/27 01:44:08;;;;;;;10.00;5.63;;;;;;;-148.15;100.00;61821.78;4934433;29;20031;-87
2023/09/27 01:46:34;;;;;;;7.20;5.20;;;;;;;-148.15;100.00;61821.78;4941229;29;20031;-86
2023/09/27 01:49:00;;;;;;;10.60;6.57;;;;;;;-148.15;100.00;61821.78;4951290;29;20034;-87
2023/09/27 01:51:25;;;;;;;8.52;6.30;;;;;;;-148.15;100.00;61821.78;4941862;29;20042;-87
2023/09/27 01:53:50;;;;;;;8.07;6.20;;;;;;;-148.15;100.00;61821.78;4934249;29;20440;-86
2023/09/27 01:56:16;;;;;;;6.63;5.83;;;;;;;-148.15;100.00;61821.78;4932116;29;20437;-87
2023/09/27 01:58:41;;;;;;;13.57;6.70;;;;;;;-148.15;100.00;61821.78;4927492;29;20032;-87
2023/09/27 02:01:06;;;;;;;10.13;6.57;;;;;;;-148.15;100.00;61821.78;4933528;29;20495;-87
2023/09/27 02:03:32;;;;;;;10.47;6.33;;;;;;;-148.15;100.00;61821.78;4933094;29;20103;-88
2023/09/27 02:05:58;;;;;;;7.47;6.43;;;;;;;-148.15;100.00;61821.78;4936909;29;20480;-88
2023/09/27 02:08:24;;;;;;;7.87;6.07;;;;;;;-148.15;100.00;61821.78;4916801;29;20166;-88
2023/09/27 02:10:51;;;;;;;11.38;6.45;;;;;;;-148.15;100.00;61821.78;4926264;29;20512;-88
2023/09/27 02:13:16;;;;;;;9.45;6.40;;;;;;;-148.15;100.00;61821.78;4921974;29;20037;-88
2023/09/27 02:15:41;;;;;;;8.23;6.70;;;;;;;-148.15;100.00;61821.78;4938978;29;20032;-88
2023/09/27 02:18:07;;;;;;;9.88;6.53;;;;;;;-148.15;100.00;61821.78;4933111;29;20071;-87
2023/09/27 02:20:32;;;;;;;10.10;6.37;;;;;;;-148.15;100.00;61821.78;4939492;29;20058;-88
2023/09/27 02:22:58;;;;;;;8.27;6.13;;;;;;;-148.15;100.00;61821.78;4938081;29;20498;-87
2023/09/27 02:25:23;;;;;;;9.20;6.72;;;;;;;-148.15;100.00;61821.78;4935718;29;20491;-88
2023/09/27 02:27:50;;;;;;;9.00;7.00;;;;;;;-148.15;100.00;61821.78;4920487;29;20040;-87
2023/09/27 02:30:15;;;;;;;9.65;6.63;;;;;;;-148.15;100.00;61821.78;4924467;29;20111;-88
2023/09/27 02:32:43;;;;;;;7.83;6.23;;;;;;;-148.15;100.00;61821.78;4919010;29;20146;-87
2023/09/27 02:35:09;;;;;;;8.60;7.00;;;;;;;-148.15;100.00;61821.78;4934762;29;20663;-88
2023/09/27 02:37:36;;;;;;;8.98;6.35;;;;;;;-148.15;100.00;61821.78;4934134;29;20028;-88
2023/09/27 02:40:11;;;;;;;11.30;7.05;;;;;;;-148.15;100.00;61821.78;4914673;29;20035;-87
2023/09/27 02:42:38;;;;;;;13.85;6.78;;;;;;;-148.15;100.00;61821.78;4896950;29;20036;-85
2023/09/27 02:45:04;;;;;;;7.65;6.38;;;;;;;-148.15;100.00;61821.78;4944940;29;20059;-86
2023/09/27 02:47:29;;;;;;;8.07;7.03;;;;;;;-148.15;100.00;61821.78;4932537;29;20024;-86
2023/09/27 02:49:55;;;;;;;6.90;6.20;;;;;;;-148.15;100.00;61821.78;4944186;29;20471;-86
2023/09/27 02:52:20;;;;;;;12.90;7.37;;;;;;;-148.15;100.00;61821.78;4938580;29;20118;-86
2023/09/27 02:54:47;;;;;;;8.77;6.32;;;;;;;-148.15;100.00;61821.78;4934026;29;20451;-88
2023/09/27 02:57:13;;;;;;;7.27;6.10;;;;;;;-148.15;100.00;61821.78;4933301;29;20079;-88
2023/09/27 02:59:38;;;;;;;10.45;6.30;;;;;;;-148.15;100.00;61821.78;4937770;29;20024;-87
2023/09/27 03:02:04;;;;;;;7.20;6.50;;;;;;;-148.15;100.00;61821.78;4936894;29;20035;-87
2023/09/27 03:04:30;;;;;;;8.88;6.57;;;;;;;-148.15;100.00;61821.78;4919704;29;20036;-87
2023/09/27 03:06:55;;;;;;;8.13;6.20;;;;;;;-148.15;100.00;61821.78;4919177;29;20056;-86
2023/09/27 03:09:21;;;;;;;10.63;6.20;;;;;;;-148.15;100.00;61821.78;4932948;29;20466;-87
2023/09/27 03:11:46;;;;;;;8.13;6.03;;;;;;;-148.15;100.00;61821.78;4939528;29;20471;-87
2023/09/27 03:14:11;;;;;;;6.90;6.13;;;;;;;-148.15;100.00;61821.78;4955885;29;20050;-87
2023/09/27 03:16:37;;;;;;;9.70;6.60;;;;;;;-148.15;100.00;61821.78;4949013;29;20306;-87
2023/09/27 03:19:02;;;;;;;8.97;6.40;;;;;;;-148.15;100.00;61821.78;4918488;29;20163;-87
2023/09/27 03:21:28;;;;;;;9.73;6.10;;;;;;;-148.15;100.00;61821.78;4932461;29;20069;-87
2023/09/27 03:23:53;;;;;;;7.63;5.83;;;;;;;-148.15;100.00;61821.78;4945548;29;20024;-87
2023/09/27 03:26:20;;;;;;;7.07;6.03;;;;;;;-148.15;100.00;61821.78;4954400;29;20027;-87
2023/09/27 03:28:45;;;;;;;10.23;6.68;;;;;;;-148.15;100.00;61821.78;4955469;29;20023;-87
2023/09/27 03:31:11;;;;;;;6.83;5.80;;;;;;;-148.15;100.00;61821.78;4954170;29;20102;-88
2023/09/27 03:33:36;;;;;;;9.73;6.00;;;;;;;-148.15;100.00;61821.78;4947375;29;20031;-87
2023/09/27 03:36:05;;;;;;;7.90;5.93;;;;;;;-148.15;100.00;61821.78;4935097;29;20031;-87
2023/09/27 03:38:32;;;;;;;9.57;6.50;;;;;;;-148.15;100.00;61821.78;4930638;29;20484;-87
2023/09/27 03:40:57;;;;;;;8.23;5.93;;;;;;;-148.15;100.00;61821.78;4938432;29;20118;-87
2023/09/27 03:43:22;;;;;;;6.60;5.93;;;;;;;-148.15;100.00;61821.78;4958475;29;20567;-87
2023/09/27 03:45:48;;;;;;;8.48;5.85;;;;;;;-148.15;100.00;61821.78;4943365;29;20024;-87
2023/09/27 03:48:15;;;;;;;10.90;5.90;;;;;;;-148.15;100.00;61821.78;4934160;29;20028;-87
2023/09/27 03:50:40;;;;;;;7.57;6.15;;;;;;;-148.15;100.00;61821.78;4906759;29;20118;-87
2023/09/27 03:53:05;;;;;;;7.97;6.43;;;;;;;-148.15;100.00;61821.78;4918331;29;20138;-87
2023/09/27 03:55:31;;;;;;;11.32;6.28;;;;;;;-148.15;100.00;61821.78;4947819;29;20027;-87
2023/09/27 03:57:56;;;;;;;8.77;5.90;;;;;;;-148.15;100.00;61821.78;4941628;29;20032;-87
2023/09/27 04:00:22;;;;;;;10.97;6.13;;;;;;;-148.15;100.00;61821.78;4955665;29;20105;-87
2023/09/27 04:02:48;;;;;;;9.13;6.40;;;;;;;-148.15;100.00;61821.78;4920310;29;20024;-88
2023/09/27 04:05:15;;;;;;;6.23;5.60;;;;;;;-148.15;100.00;61821.78;4930190;29;20111;-87
2023/09/27 04:07:41;;;;;;;7.03;5.80;;;;;;;-148.15;100.00;61821.78;4934482;29;20499;-87
2023/09/27 04:10:07;;;;;;;9.15;6.80;;;;;;;-148.15;100.00;61821.78;4948167;29;20031;-87
2023/09/27 04:12:36;;;;;;;9.80;6.20;;;;;;;-148.15;100.00;61821.78;4938090;29;20098;-86
2023/09/27 04:15:02;;;;;;;8.68;5.88;;;;;;;-148.15;100.00;61821.78;4916930;29;20032;-86
2023/09/27 04:17:28;;;;;;;6.60;5.90;;;;;;;-148.15;100.00;61821.78;4933602;29;20083;-87
2023/09/27 04:19:55;;;;;;;7.63;5.80;;;;;;;-148.15;100.00;61821.78;4935307;29;20036;-87
2023/09/27 04:22:20;;;;;;;8.57;6.57;;;;;;;-148.15;100.00;61821.78;4934734;29;20031;-87
2023/09/27 04:24:46;;;;;;;8.97;6.03;;;;;;;-148.15;100.00;61821.78;4911584;29;20028;-87
2023/09/27 04:27:11;;;;;;;9.03;6.03;;;;;;;-148.15;100.00;61821.78;4947669;29;20027;-86
2023/09/27 04:29:37;;;;;;;8.13;5.93;;;;;;;-148.15;100.00;61821.78;4940101;29;20051;-86
2023/09/27 04:32:02;;;;;;;7.33;6.23;;;;;;;-148.15;100.00;61821.78;4916377;29;20036;-87
2023/09/27 04:34:28;;;;;;;9.57;6.23;;;;;;;-148.15;100.00;61821.78;4925172;29;20024;-87
2023/09/27 04:36:53;;;;;;;8.25;5.70;;;;;;;-148.15;100.00;61821.78;4916153;29;20056;-86
2023/09/27 04:39:19;;;;;;;8.25;6.00;;;;;;;-148.15;100.00;61821.78;4928661;29;20035;-87
2023/09/27 04:41:48;;;;;;;10.57;6.27;;;;;;;-148.15;100.00;61821.78;4928259;29;20031;-87
2023/09/27 04:44:13;;;;;;;9.50;6.45;;;;;;;-148.15;100.00;61821.78;4943840;29;20526;-87
2023/09/27 04:46:39;;;;;;;7.80;5.85;;;;;;;-148.15;100.00;61821.78;4919672;29;20032;-88
2023/09/27 04:49:04;;;;;;;8.57;6.43;;;;;;;-148.15;100.00;61821.78;4935085;29;20451;-88
2023/09/27 04:51:30;;;;;;;8.00;6.37;;;;;;;-148.15;100.00;61821.78;4934522;29;20027;-87
2023/09/27 04:54:00;;;;;;;10.52;6.28;;;;;;;-148.15;100.00;61821.78;4934658;29;20027;-87
2023/09/27 04:56:26;;;;;;;8.40;6.47;;;;;;;-148.15;100.00;61821.78;4933013;29;20027;-87
2023/09/27 04:58:51;;;;;;;10.30;7.13;;;;;;;-148.15;100.00;61821.78;4939090;29;20345;-87
2023/09/27 05:01:17;;;;;;;9.53;6.53;;;;;;;-148.15;100.00;61821.78;4939232;29;20083;-87
2023/09/27 05:03:43;;;;;;;7.57;6.15;;;;;;;-148.15;100.00;61821.78;4934964;29;20044;-86
2023/09/27 05:06:08;;;;;;;8.50;6.43;;;;;;;-148.15;100.00;61821.78;4932307;29;20114;-87
2023/09/27 05:08:34;;;;;;;12.07;6.90;;;;;;;-148.15;100.00;61821.78;4938107;29;20500;-87
2023/09/27 05:10:59;;;;;;;8.23;6.68;;;;;;;-148.15;100.00;61821.78;4930760;29;20056;-86
2023/09/27 05:13:24;;;;;;;10.07;7.20;;;;;;;-148.15;100.00;61821.78;4933309;29;20043;-86
2023/09/27 05:15:53;;;;;;;8.87;7.10;;;;;;;-148.15;100.00;61821.78;4926042;29;20261;-88
2023/09/27 05:18:20;;;;;;;8.60;7.17;;;;;;;-148.15;100.00;61821.78;4918061;29;21093;-87
2023/09/27 05:20:45;;;;;;;10.32;7.07;;;;;;;-148.15;100.00;61821.78;4919056;29;20337;-88
2023/09/27 05:23:12;;;;;;;12.07;7.50;;;;;;;-148.15;100.00;61821.78;4933991;29;20032;-87
2023/09/27 05:25:37;;;;;;;12.47;6.80;;;;;;;-148.15;100.00;61821.78;4947573;29;20072;-89
2023/09/27 05:28:03;;;;;;;12.03;7.17;;;;;;;-148.15;100.00;61821.78;4934161;29;20707;-87
2023/09/27 05:30:28;;;;;;;7.57;6.83;;;;;;;-148.15;100.00;61821.78;4933292;29;20026;-88
2023/09/27 05:32:53;;;;;;;8.95;7.68;;;;;;;-148.15;100.00;61821.78;4939996;29;20365;-88
2023/09/27 05:35:19;;;;;;;8.57;6.77;;;;;;;-148.15;100.00;61821.78;4944583;29;20027;-85
2023/09/27 05:37:44;;;;;;;10.27;7.23;;;;;;;-148.15;100.00;61821.78;4951741;29;20426;-86
2023/09/27 05:40:11;;;;;;;8.07;6.87;;;;;;;-148.15;100.00;61821.78;4944604;29;20365;-86
2023/09/27 05:42:40;;;;;;;10.63;7.30;;;;;;;-148.15;100.00;61821.78;4914368;29;20327;-85
2023/09/27 05:45:07;;;;;;;9.35;7.00;;;;;;;-148.15;100.00;61821.78;4921945;29;20046;-87
2023/09/27 05:47:33;;;;;;;8.35;6.88;;;;;;;-148.15;100.00;61821.78;4932041;29;20035;-86
2023/09/27 05:49:58;;;;;;;7.72;6.63;;;;;;;-148.15;100.00;61821.78;4951869;29;20027;-86
2023/09/27 05:52:24;;;;;;;9.35;7.32;;;;;;;-148.15;100.00;61821.78;4934509;29;20488;-86
2023/09/27 05:54:51;;;;;;;10.00;6.97;;;;;;;-148.15;100.00;61821.78;4938262;29;20127;-86
2023/09/27 05:57:16;;;;;;;9.15;6.57;;;;;;;-148.15;100.00;61821.78;4939274;29;20031;-86
2023/09/27 05:59:44;;;;;;;7.70;6.63;;;;;;;-148.15;100.00;61821.78;4921848;29;20399;-86
2023/09/27 06:02:16;;;;;;;10.00;6.68;;;;;;;-148.15;100.00;61821.78;4930054;29;20035;-85
2023/09/27 06:04:43;;;;;;;9.75;7.00;;;;;;;-148.15;100.00;61821.78;4929243;29;20083;-85
2023/09/27 06:07:11;;;;;;;9.65;7.32;;;;;;;-148.15;100.00;61821.78;4927655;29;20028;-86
2023/09/27 06:09:36;;;;;;;9.00;6.60;;;;;;;-148.15;100.00;61821.78;4916115;29;20092;-85
2023/09/27 06:12:02;;;;;;;7.93;6.50;;;;;;;-148.15;100.00;61821.78;4915850;29;20123;-85
2023/09/27 06:14:27;;;;;;;8.65;6.15;;;;;;;-148.15;100.00;61821.78;4927419;29;20092;-87
2023/09/27 06:16:52;;;;;;;9.53;7.27;;;;;;;-148.15;100.00;61821.78;4914388;29;20050;-86
2023/09/27 06:19:18;;;;;;;8.53;6.60;;;;;;;-148.15;100.00;61821.78;4929936;29;20028;-86
2023/09/27 06:21:43;;;;;;;11.20;7.67;;;;;;;-148.15;100.00;61821.78;4926129;29;20491;-86
2023/09/27 06:24:09;;;;;;;10.53;6.37;;;;;;;-148.15;100.00;61821.78;4932938;29;20024;-86
2023/09/27 06:26:34;;;;;;;11.37;7.13;;;;;;;-148.15;100.00;61821.78;4900869;29;20028;-86
2023/09/27 06:28:59;;;;;;;12.57;7.80;;;;;;;-148.15;100.00;61821.78;4931323;29;20291;-86
2023/09/27 06:31:25;;;;;;;9.30;7.87;;;;;;;-148.15;100.00;61821.78;4933070;29;20028;-86
2023/09/27 06:33:51;;;;;;;11.53;7.77;;;;;;;-148.15;100.00;61821.78;4943505;29;20725;-85
2023/09/27 06:36:17;;;;;;;11.77;7.85;;;;;;;-148.15;100.00;61821.78;4939182;29;20062;-86
2023/09/27 06:38:42;;;;;;;13.13;8.17;;;;;;;-148.15;100.00;61821.78;4952143;29;20391;-87
2023/09/27 06:41:08;;;;;;;11.77;9.27;;;;;;;-148.15;100.00;61821.78;4950429;29;20035;-86
2023/09/27 06:43:34;;;;;;;13.02;9.88;;;;;;;-148.15;100.00;61821.78;4941006;29;20036;-88
2023/09/27 06:46:01;;;;;;;13.87;9.50;;;;;;;-148.15;100.00;61821.78;4914574;29;20135;-87
2023/09/27 06:48:27;;;;;;;14.77;10.15;;;;;;;-148.15;100.00;61821.78;4923148;29;20032;-87
2023/09/27 06:50:53;;;;;;;14.02;10.60;;;;;;;-148.15;100.00;61821.78;4906052;29;20024;-87
2023/09/27 06:53:18;;;;;;;13.77;10.70;;;;;;;-148.15;100.00;61821.78;4948066;29;20043;-87
2023/09/27 06:55:49;;;;;;;14.50;9.87;;;;;;;-148.15;100.00;61821.78;4939941;29;20111;-87
2023/09/27 06:58:15;;;;;;;14.73;9.33;;;;;;;-148.15;100.00;61821.78;4914698;29;20371;-88
2023/09/27 07:00:41;;;;;;;13.63;10.40;;;;;;;-148.15;100.00;61821.78;4914046;29;20036;-87
2023/09/27 07:03:06;;;;;;;12.60;9.85;;;;;;;-148.15;100.00;61821.78;4927285;29;20035;-87
2023/09/27 07:05:33;;;;;;;13.23;10.13;;;;;;;-148.15;100.00;61821.78;4952539;29;20028;-86
2023/09/27 07:07:59;;;;;;;10.88;9.48;;;;;;;-148.15;100.00;61821.78;4946118;29;20035;-87
2023/09/27 07:10:24;;;;;;;13.63;9.87;;;;;;;-148.15;100.00;61821.78;4935757;29;20027;-87
2023/09/27 07:12:50;;;;;;;11.55;9.43;;;;;;;-148.15;100.00;61821.78;4933061;29;20023;-85
2023/09/27 07:15:15;;;;;;;12.67;9.00;;;;;;;-148.15;100.00;61821.78;4924614;29;20078;-86
2023/09/27 07:17:43;;;;;;;11.83;9.27;;;;;;;-148.15;100.00;61821.78;4920295;29;20027;-86
2023/09/27 07:20:16;;;;;;;10.57;9.25;;;;;;;-148.15;100.00;61821.78;4947144;29;20027;-86
2023/09/27 07:22:42;;;;;;;12.77;10.00;;;;;;;-148.15;100.00;61821.78;4948872;29;20040;-86
2023/09/27 07:25:12;;;;;;;12.45;8.95;;;;;;;-148.15;100.00;61821.78;4923904;29;20031;-86
2023/09/27 07:27:37;;;;;;;13.52;9.68;;;;;;;-148.15;100.00;61821.78;4926043;29;20118;-86
2023/09/27 07:30:03;;;;;;;10.77;8.67;;;;;;;-148.15;100.00;61821.78;4932568;29;20164;-85
2023/09/27 07:32:30;;;;;;;15.40;10.00;;;;;;;-148.15;100.00;61821.78;4907943;29;20031;-85
2023/09/27 07:34:58;;;;;;;12.27;9.40;;;;;;;-148.15;100.00;61821.78;4930328;29;20088;-83
2023/09/27 07:37:23;;;;;;;13.37;9.90;;;;;;;-148.15;100.00;61821.78;4925607;29;20115;-83
2023/09/27 07:39:49;;;;;;;12.27;10.23;;;;;;;-148.15;100.00;61821.78;4930431;29;20877;-86
2023/09/27 07:42:14;;;;;;;14.83;9.93;;;;;;;-148.15;100.00;61821.78;4902869;29;20135;-85
2023/09/27 07:44:39;;;;;;;16.97;9.70;;;;;;;-148.15;100.00;61821.78;4934721;29;20115;-84
2023/09/27 07:47:05;;;;;;;14.27;10.33;;;;;;;-148.15;100.00;61821.78;4930444;29;20059;-85
2023/09/27 07:49:30;;;;;;;14.47;9.97;;;;;;;-148.15;100.00;61821.78;4931469;29;20055;-85
2023/09/27 07:51:55;;;;;;;15.80;11.02;;;;;;;-148.15;100.00;61821.78;4917030;29;20031;-87
2023/09/27 07:54:23;;;;;;;12.00;9.83;;;;;;;-148.15;100.00;61821.78;4938474;29;20106;-86
2023/09/27 07:56:50;;;;;;;13.85;10.38;;;;;;;-148.15;100.00;61821.78;4918308;29;20508;-85
2023/09/27 07:59:15;;;;;;;15.43;11.43;;;;;;;-148.15;100.00;61821.78;4928908;29;20095;-85
2023/09/27 08:01:41;;;;;;;12.27;10.63;;;;;;;-148.15;100.00;61821.78;4919273;29;20320;-85
2023/09/27 08:04:08;;;;;;;12.88;10.27;;;;;;;-148.15;100.00;61821.78;4932817;29;20027;-85
2023/09/27 08:06:34;;;;;;;14.60;11.50;;;;;;;-148.15;100.00;61821.78;4917903;29;20060;-84
2023/09/27 08:09:00;;;;;;;16.37;11.30;;;;;;;-148.15;100.00;61821.78;4928810;29;20070;-86
2023/09/27 08:11:26;;;;;;;13.65;11.55;;;;;;;-148.15;100.00;61821.78;4920844;29;20035;-86
2023/09/27 08:13:52;;;;;;;15.75;11.73;;;;;;;-148.15;100.00;61821.78;4926251;29;20525;-86
2023/09/27 08:16:17;;;;;;;21.23;10.83;;;;;;;-148.15;100.00;61821.78;4932959;29;20111;-86
2023/09/27 08:18:43;;;;;;;14.93;11.07;;;;;;;-148.15;100.00;61821.78;4924980;29;20036;-87
2023/09/27 08:21:09;;;;;;;14.05;10.57;;;;;;;-148.15;100.00;61821.78;4928662;29;20031;-87
2023/09/27 08:23:34;;;;;;;15.43;10.30;;;;;;;-148.15;100.00;61821.78;4944244;29;20118;-86
2023/09/27 08:26:00;;;;;;;14.23;10.27;;;;;;;-148.15;100.00;61821.78;4932024;29;20386;-87
2023/09/27 08:28:26;;;;;;;16.55;11.27;;;;;;;-148.15;100.00;61821.78;4921297;29;20027;-86
2023/09/27 08:30:51;;;;;;;12.83;10.43;;;;;;;-148.15;100.00;61821.78;4917406;29;20032;-87
2023/09/27 08:33:16;;;;;;;16.13;11.37;;;;;;;-148.15;100.00;61821.78;4947835;29;20046;-85
2023/09/27 08:35:42;;;;;;;13.33;10.87;;;;;;;-148.15;100.00;61821.78;4943661;29;20042;-85
2023/09/27 08:38:08;;;;;;;13.13;10.60;;;;;;;-148.15;100.00;61821.78;4934720;29;20291;-84
2023/09/27 08:40:34;;;;;;;12.70;10.95;;;;;;;-148.15;100.00;61821.78;4917344;29;20028;-85
2023/09/27 08:43:00;;;;;;;11.20;10.00;;;;;;;-148.15;100.00;61821.78;4934704;29;20039;-85
2023/09/27 08:45:27;;;;;;;14.63;10.00;;;;;;;-148.15;100.00;61821.78;4926805;29;20355;-85
2023/09/27 08:47:54;;;;;;;13.68;10.23;;;;;;;-148.15;100.00;61821.78;4928768;29;20020;-85
2023/09/27 08:50:20;;;;;;;17.42;10.32;;;;;;;-148.15;100.00;61821.78;4934560;29;20028;-85
2023/09/27 08:52:50;;;;;;;13.52;9.27;;;;;;;-148.15;100.00;61821.78;4934052;29;20055;-85
2023/09/27 08:55:17;;;;;;;11.82;9.75;;;;;;;-148.15;100.00;61821.78;4932206;29;20326;-85
2023/09/27 08:57:47;;;;;;;14.55;9.65;;;;;;;-148.15;100.00;61821.78;4935848;29;20031;-84
2023/09/27 09:00:15;;;;;;;13.57;9.10;;;;;;;-148.15;100.00;61821.78;4953593;29;20034;-85
2023/09/27 09:02:43;;;;;;;13.20;10.23;;;;;;;-148.15;100.00;61821.78;4940767;29;20047;-85
2023/09/27 09:05:12;;;;;;;18.13;11.03;;;;;;;-148.15;100.00;61821.78;4914998;29;20735;-85
2023/09/27 09:07:40;;;;;;;17.08;10.95;;;;;;;-148.15;100.00;61821.78;4933444;29;20106;-84
2023/09/27 09:10:09;;;;;;;15.82;11.40;;;;;;;-148.15;100.00;61821.78;4933850;29;20483;-85
2023/09/27 09:12:37;;;;;;;14.85;12.13;;;;;;;-148.15;100.00;61821.78;4932623;29;20102;-85
2023/09/27 09:15:05;;;;;;;16.02;11.52;;;;;;;-148.15;100.00;61821.78;4950135;29;20067;-85
2023/09/27 09:17:34;;;;;;;14.75;12.07;;;;;;;-148.15;100.00;61821.78;4933729;29;20760;-85
2023/09/27 09:20:15;;;;;;;17.45;12.23;;;;;;;-148.15;100.00;61821.78;4934521;29;20034;-86
2023/09/27 09:22:46;;;;;;;13.88;12.35;;;;;;;-148.15;100.00;61821.78;4934675;29;20039;-85
2023/09/27 09:25:12;;;;;;;18.07;12.50;;;;;;;-148.15;100.00;61821.78;4932317;29;20028;-85
2023/09/27 09:27:38;;;;;;;14.20;12.50;;;;;;;-148.15;100.00;61821.78;4939413;29;20318;-85
2023/09/27 09:30:06;;;;;;;18.10;14.13;;;;;;;-148.15;100.00;61821.78;4952779;29;20627;-85
2023/09/27 09:32:32;;;;;;;13.90;12.13;;;;;;;-148.15;100.00;61821.78;4946005;29;20515;-85
2023/09/27 09:34:57;;;;;;;17.67;12.50;;;;;;;-148.15;100.00;61821.78;4931157;29;20297;-85
2023/09/27 09:37:28;;;;;;;16.30;13.02;;;;;;;-148.15;100.00;61821.78;4914933;29;20484;-85
2023/09/27 09:40:14;;;;;;;15.37;13.80;;;;;;;-148.15;100.00;61821.78;4921518;29;20031;-86
2023/09/27 09:42:42;;;;;;;14.75;12.98;;;;;;;-148.15;100.00;61821.78;4942498;29;20038;-86
2023/09/27 09:45:12;;;;;;;17.85;12.82;;;;;;;-148.15;100.00;61821.78;4962997;29;20513;-85
2023/09/27 09:47:39;;;;;;;16.45;12.93;;;;;;;-148.15;100.00;61821.78;4935835;29;20062;-85
2023/09/27 09:50:06;;;;;;;17.38;13.90;;;;;;;-148.15;100.00;61821.78;4933903;29;20031;-85
2023/09/27 09:52:39;;;;;;;15.48;13.75;;;;;;;-148.15;100.00;61821.78;4933272;29;20032;-85
2023/09/27 09:55:11;;;;;;;14.80;11.53;;;;;;;-148.15;100.00;61821.78;4933786;29;20054;-85
2023/09/27 09:57:40;;;;;;;15.03;12.27;;;;;;;-148.15;100.00;61821.78;4914256;29;20288;-85
2023/09/27 10:00:18;;;;;;;17.73;12.50;;;;;;;-148.15;100.00;61821.78;4926728;29;20476;-85
2023/09/27 10:02:49;;;;;;;17.83;11.57;;;;;;;-148.15;100.00;61821.78;4928858;29;20035;-85
2023/09/27 10:05:17;;;;;;;16.88;10.30;;;;;;;-148.15;100.00;61821.78;4955198;28;20564;-84
2023/09/27 10:07:44;;;;;;;12.48;11.00;;;;;;;-148.15;100.00;61821.78;4934148;29;20023;-85
2023/09/27 10:10:10;;;;;;;14.73;10.95;;;;;;;-148.15;100.00;61821.78;4944819;29;20035;-85
2023/09/27 10:12:37;;;;;;;16.47;10.17;;;;;;;-148.15;100.00;61821.78;4948981;29;20031;-85
2023/09/27 10:15:07;;;;;;;13.13;9.80;;;;;;;-148.15;100.00;61821.78;4951897;29;20031;-85
2023/09/27 10:17:33;;;;;;;12.80;9.95;;;;;;;-148.15;100.00;61821.78;4932229;29;20028;-85
2023/09/27 10:20:15;;;;;;;14.15;9.40;;;;;;;-148.15;100.00;61821.78;4928403;29;20082;-85
2023/09/27 10:22:45;;;;;;;12.77;10.40;;;;;;;-148.15;100.00;61821.78;4932426;29;20078;-84
2023/09/27 10:25:22;;;;;;;16.77;9.55;;;;;;;-148.15;100.00;61821.78;4932119;29;20036;-85
2023/09/27 10:28:01;;;;;;;14.63;9.88;;;;;;;-148.15;100.00;61821.78;4913384;29;20119;-84
2023/09/27 10:30:27;;;;;;;11.00;8.90;;;;;;;-148.15;100.00;61821.78;4914298;29;20080;-85
2023/09/27 10:33:15;;;;;;;14.10;9.40;;;;;;;-148.15;100.00;61821.78;4896683;29;20028;-85
2023/09/27 10:35:46;;;;;;;8.90;7.82;;;;;;;-148.15;100.00;61821.78;4914227;29;20722;-85
2023/09/27 10:38:12;;;;;;;8.80;7.43;;;;;;;-148.15;100.00;61821.78;4914152;29;20024;-85
2023/09/27 10:40:47;;;;;;;10.17;7.70;;;;;;;-148.15;100.00;61821.78;4913408;29;20303;-85
2023/09/27 10:43:34;;;;;;;9.57;6.78;;;;;;;-148.15;100.00;61821.78;4918898;29;20096;-84
2023/09/27 10:46:00;;;;;;;8.10;6.60;;;;;;;-148.15;100.00;61821.78;4918867;29;20036;-85
2023/09/27 10:48:25;;;;;;;9.30;6.30;;;;;;;-148.15;100.00;61821.78;4917887;29;20083;-87
2023/09/27 10:50:56;;;;;;;11.97;6.57;;;;;;;-148.15;100.00;61821.78;4926158;29;20070;-91
2023/09/27 10:53:25;;;;;;;14.30;6.03;;;;;;;-148.15;100.00;61821.78;4932826;29;20038;-89
2023/09/27 10:55:51;;;;;;;10.18;5.60;;;;;;;-148.15;100.00;61821.78;4930937;29;20440;-89
2023/09/27 10:58:17;;;;;;;10.00;5.90;;;;;;;-148.15;100.00;61821.78;4921140;29;20039;-88
2023/09/27 11:00:56;;;;;;;8.25;5.32;;;;;;;-148.15;100.00;61821.78;4897547;29;20476;-88
2023/09/27 11:03:23;;;;;;;7.68;5.65;;;;;;;-148.15;100.00;61821.78;4915626;29;20401;-89